Time;durP1;ratioP1;P1;durP2;ratioP2;P2;SDS_P1;SDS_P2;PMS_P1;PMS_P2;Temp;Humidity;BMP_temperature;BMP_pressure;BME280_temperature;BME280_humidity;BME280_pressure;Samples;Min_cycle;Max_cycle;Signal;HPM_P1;HPM_P2
2023/07/24 00:00:23;;;;;;;9.23;5.15;;;17.00;99.90;;;;;;5130974;27;20412;-56
2023/07/24 00:02:49;;;;;;;10.75;5.10;;;16.80;99.90;;;;;;5129480;27;20047;-56
2023/07/24 00:05:15;;;;;;;13.40;5.50;;;17.00;99.90;;;;;;5130020;27;20047;-56
2023/07/24 00:07:41;;;;;;;9.95;5.47;;;17.00;99.90;;;;;;5131955;27;20090;-56
2023/07/24 00:10:07;;;;;;;9.90;5.20;;;16.80;99.90;;;;;;5111511;27;20517;-55
2023/07/24 00:12:33;;;;;;;11.88;5.80;;;16.80;99.90;;;;;;5129386;27;20088;-56
2023/07/24 00:14:59;;;;;;;11.82;5.20;;;16.90;99.90;;;;;;5130386;27;20043;-56
2023/07/24 00:17:24;;;;;;;13.52;5.25;;;16.90;99.90;;;;;;5130945;27;20863;-56
2023/07/24 00:19:50;;;;;;;12.07;4.90;;;16.90;99.90;;;;;;5130558;27;20099;-56
2023/07/24 00:22:16;;;;;;;9.75;5.38;;;16.70;99.90;;;;;;5130444;27;20373;-56
2023/07/24 00:24:42;;;;;;;9.32;5.38;;;15.00;99.90;;;;;;5132056;27;20518;-56
2023/07/24 00:27:07;;;;;;;11.05;5.45;;;16.70;99.90;;;;;;5132048;27;20026;-55
2023/07/24 00:29:33;;;;;;;9.25;5.28;;;14.80;99.90;;;;;;5131563;27;20066;-56
2023/07/24 00:31:59;;;;;;;11.20;5.30;;;16.90;99.90;;;;;;5129743;27;20057;-55
2023/07/24 00:34:25;;;;;;;11.50;5.68;;;16.80;99.90;;;;;;5129050;27;20141;-55
2023/07/24 00:36:50;;;;;;;11.88;5.53;;;16.80;99.90;;;;;;5112067;27;20042;-55
2023/07/24 00:39:16;;;;;;;13.07;5.22;;;16.90;99.90;;;;;;5130327;27;20122;-56
2023/07/24 00:41:43;;;;;;;13.80;5.40;;;16.80;99.90;;;;;;5111361;27;20034;-56
2023/07/24 00:44:08;;;;;;;13.65;6.70;;;16.80;99.90;;;;;;5131956;27;20495;-56
2023/07/24 00:46:35;;;;;;;9.93;5.40;;;15.50;99.90;;;;;;5131827;27;20043;-56
2023/07/24 00:49:02;;;;;;;15.02;5.78;;;16.70;99.90;;;;;;5130623;27;21403;-55
2023/07/24 00:51:28;;;;;;;12.40;5.32;;;16.70;99.90;;;;;;5129395;27;20421;-56
2023/07/24 00:53:59;;;;;;;12.55;6.40;;;16.40;99.90;;;;;;5132106;27;22326;-56
2023/07/24 00:56:26;;;;;;;12.70;6.28;;;16.70;99.90;;;;;;5135388;27;20051;-56
2023/07/24 00:58:55;;;;;;;15.63;7.28;;;16.50;99.90;;;;;;5117236;27;20050;-56
2023/07/24 01:01:22;;;;;;;13.20;6.22;;;16.50;99.90;;;;;;5135439;27;20061;-55
2023/07/24 01:03:48;;;;;;;12.57;6.22;;;16.40;99.90;;;;;;5135686;27;20066;-56
2023/07/24 01:06:14;;;;;;;12.75;6.68;;;16.40;99.90;;;;;;5134777;27;20504;-56
2023/07/24 01:08:39;;;;;;;14.35;6.50;;;16.40;99.90;;;;;;5134098;27;20114;-56
2023/07/24 01:11:29;;;;;;;13.68;6.88;;;16.40;99.90;;;;;;5136224;27;20055;-56
2023/07/24 01:14:25;;;;;;;13.90;6.47;;;16.20;99.90;;;;;;5135132;27;20069;-56
2023/07/24 01:16:54;;;;;;;15.88;7.30;;;16.00;99.90;;;;;;5112312;27;20042;-56
2023/07/24 01:19:26;;;;;;;12.18;6.85;;;16.20;99.90;;;;;;5133275;27;20110;-55
2023/07/24 01:22:08;;;;;;;20.30;7.80;;;16.10;99.90;;;;;;5132249;27;20387;-56
2023/07/24 01:24:46;;;;;;;15.73;7.25;;;16.10;99.90;;;;;;5135921;27;20089;-56
2023/07/24 01:27:25;;;;;;;13.93;8.15;;;16.20;99.90;;;;;;5132812;27;20125;-56
2023/07/24 01:29:50;;;;;;;12.40;7.55;;;16.00;99.90;;;;;;5132671;27;20402;-56
2023/07/24 01:32:17;;;;;;;13.35;7.57;;;16.10;99.90;;;;;;5132136;27;21288;-56
2023/07/24 01:34:42;;;;;;;14.63;8.60;;;15.90;99.90;;;;;;5132314;27;20110;-56
2023/07/24 01:37:11;;;;;;;15.60;8.40;;;15.80;99.90;;;;;;5134177;27;20054;-56
2023/07/24 01:39:37;;;;;;;16.80;9.43;;;16.00;99.90;;;;;;5113780;27;20284;-56
2023/07/24 01:42:04;;;;;;;19.30;9.65;;;15.80;99.90;;;;;;5132792;27;20121;-56
2023/07/24 01:44:30;;;;;;;15.40;9.70;;;15.90;99.90;;;;;;5132117;27;20225;-56
2023/07/24 01:46:55;;;;;;;18.65;10.10;;;16.00;99.90;;;;;;5133614;27;20042;-56
2023/07/24 01:49:21;;;;;;;18.38;10.30;;;15.80;99.90;;;;;;5133701;27;20110;-56
2023/07/24 01:51:47;;;;;;;16.00;10.80;;;16.00;99.90;;;;;;5133637;27;20034;-56
2023/07/24 01:54:13;;;;;;;19.25;11.15;;;15.70;99.90;;;;;;5132662;27;20515;-56
2023/07/24 01:56:39;;;;;;;17.42;10.90;;;15.90;99.90;;;;;;5115570;27;20042;-56
2023/07/24 01:59:05;;;;;;;22.17;11.90;;;16.00;99.90;;;;;;5115051;27;20523;-56
2023/07/24 02:01:31;;;;;;;15.32;12.30;;;15.80;99.90;;;;;;5132998;27;20145;-56
2023/07/24 02:03:57;;;;;;;17.92;12.05;;;15.90;99.90;;;;;;5132362;27;20106;-56
2023/07/24 02:06:23;;;;;;;18.25;11.77;;;15.70;99.90;;;;;;5133061;27;20604;-56
2023/07/24 02:08:51;;;;;;;19.23;12.77;;;15.90;99.90;;;;;;5134733;27;20047;-56
2023/07/24 02:11:17;;;;;;;19.35;12.50;;;15.90;99.90;;;;;;5132980;27;20076;-56
2023/07/24 02:13:46;;;;;;;20.40;12.75;;;15.80;99.90;;;;;;5115124;27;20372;-55
2023/07/24 02:16:14;;;;;;;21.48;13.60;;;15.80;99.90;;;;;;5134346;27;20062;-56
2023/07/24 02:18:42;;;;;;;20.05;13.50;;;15.80;99.90;;;;;;5134284;27;20053;-56
2023/07/24 02:21:08;;;;;;;19.90;13.52;;;15.60;99.90;;;;;;5134332;27;20122;-56
2023/07/24 02:23:34;;;;;;;18.92;14.45;;;15.80;99.90;;;;;;5134219;27;20343;-56
2023/07/24 02:26:00;;;;;;;21.02;14.70;;;15.60;99.90;;;;;;5135176;27;20130;-56
2023/07/24 02:28:26;;;;;;;18.48;14.20;;;15.70;99.90;;;;;;5131326;27;20053;-56
2023/07/24 02:30:55;;;;;;;19.80;14.65;;;15.60;99.90;;;;;;5133935;27;20076;-56
2023/07/24 02:33:21;;;;;;;21.95;14.65;;;15.80;99.90;;;;;;5133501;27;20066;-56
2023/07/24 02:35:47;;;;;;;22.20;14.70;;;15.80;99.90;;;;;;5114229;27;20051;-56
2023/07/24 02:38:13;;;;;;;20.88;15.13;;;15.80;99.90;;;;;;5131975;27;20588;-56
2023/07/24 02:40:40;;;;;;;18.73;14.63;;;15.90;99.90;;;;;;5132278;27;20344;-56
2023/07/24 02:43:06;;;;;;;20.70;14.05;;;15.80;99.90;;;;;;5131061;27;20046;-56
2023/07/24 02:45:36;;;;;;;21.55;15.45;;;15.90;99.90;;;;;;5131923;27;20090;-56
2023/07/24 02:48:02;;;;;;;22.08;15.15;;;15.70;99.90;;;;;;5131072;27;20038;-55
2023/07/24 02:50:28;;;;;;;18.13;13.80;;;15.80;99.90;;;;;;5131150;27;20085;-56
2023/07/24 02:52:54;;;;;;;22.38;14.45;;;15.80;99.90;;;;;;5132245;27;20481;-56
2023/07/24 02:55:20;;;;;;;20.20;13.05;;;15.90;99.90;;;;;;5133303;27;20428;-56
2023/07/24 02:57:45;;;;;;;19.15;13.02;;;15.90;99.90;;;;;;5131426;27;20039;-56
2023/07/24 03:00:12;;;;;;;18.30;12.73;;;16.00;99.90;;;;;;5096865;27;20034;-56
2023/07/24 03:02:39;;;;;;;19.23;13.15;;;16.10;99.90;;;;;;5131573;27;20041;-56
2023/07/24 03:05:05;;;;;;;19.33;12.13;;;16.10;99.90;;;;;;5130701;27;20036;-56
2023/07/24 03:07:31;;;;;;;20.65;13.23;;;16.10;99.90;;;;;;5130962;27;20043;-56
2023/07/24 03:09:57;;;;;;;19.48;11.88;;;16.00;99.90;;;;;;5131518;27;20042;-56
2023/07/24 03:12:23;;;;;;;16.25;12.30;;;16.10;99.90;;;;;;5131209;27;20450;-56
2023/07/24 03:14:49;;;;;;;16.52;11.23;;;16.00;99.90;;;;;;5132963;27;20042;-56
2023/07/24 03:17:14;;;;;;;15.25;10.43;;;16.10;99.90;;;;;;5131145;27;20043;-56
2023/07/24 03:19:41;;;;;;;20.67;11.68;;;16.20;99.90;;;;;;5095545;27;20038;-56
2023/07/24 03:22:07;;;;;;;18.77;10.25;;;16.10;99.90;;;;;;5113247;27;20038;-56
2023/07/24 03:24:33;;;;;;;15.40;8.93;;;16.20;99.90;;;;;;5131969;27;20050;-56
2023/07/24 03:27:00;;;;;;;21.63;10.55;;;16.30;99.90;;;;;;5133206;27;20423;-56
2023/07/24 03:29:26;;;;;;;16.90;8.82;;;16.10;99.90;;;;;;5131667;27;20054;-56
2023/07/24 03:31:52;;;;;;;15.73;8.48;;;16.10;99.90;;;;;;5133203;27;20038;-56
2023/07/24 03:34:17;;;;;;;15.30;8.77;;;16.20;99.90;;;;;;5131407;27;20046;-56
2023/07/24 03:36:43;;;;;;;15.55;8.98;;;16.10;99.90;;;;;;5131713;27;20030;-56
2023/07/24 03:39:10;;;;;;;16.63;9.63;;;16.30;99.90;;;;;;5131031;27;20043;-56
2023/07/24 03:41:36;;;;;;;14.48;9.20;;;18.20;99.90;;;;;;5131907;27;20126;-56
2023/07/24 03:44:01;;;;;;;15.20;8.50;;;16.20;99.90;;;;;;5131673;27;20038;-56
2023/07/24 03:46:27;;;;;;;19.25;9.68;;;16.30;99.90;;;;;;5113149;27;20513;-56
2023/07/24 03:48:53;;;;;;;16.13;9.13;;;16.20;99.90;;;;;;5131369;27;20039;-56
2023/07/24 03:51:18;;;;;;;17.83;9.90;;;16.30;99.90;;;;;;5132486;27;20128;-56
2023/07/24 03:53:44;;;;;;;15.50;9.20;;;16.20;99.90;;;;;;5132911;27;20520;-56
2023/07/24 03:56:10;;;;;;;13.30;8.38;;;16.10;99.90;;;;;;5132484;27;20121;-56
2023/07/24 03:58:38;;;;;;;14.80;8.68;;;16.40;99.90;;;;;;5129490;27;20065;-56
2023/07/24 04:01:04;;;;;;;16.42;9.07;;;16.50;99.90;;;;;;5132156;27;20039;-56
2023/07/24 04:03:30;;;;;;;15.32;8.65;;;16.20;99.90;;;;;;5113409;27;20030;-56
2023/07/24 04:05:55;;;;;;;14.43;9.07;;;16.40;99.90;;;;;;5130325;27;20510;-56
2023/07/24 04:08:21;;;;;;;14.90;8.10;;;16.40;99.90;;;;;;5130088;27;20091;-56
2023/07/24 04:10:47;;;;;;;12.48;8.48;;;16.30;99.90;;;;;;5113706;27;20482;-56
2023/07/24 04:13:12;;;;;;;14.55;8.40;;;16.20;99.90;;;;;;5130531;27;20031;-56
2023/07/24 04:15:39;;;;;;;15.35;9.18;;;16.40;99.90;;;;;;5130292;27;20499;-56
2023/07/24 04:18:05;;;;;;;14.20;8.70;;;16.10;99.90;;;;;;5130304;27;20336;-57
2023/07/24 04:20:31;;;;;;;14.93;8.38;;;16.30;99.90;;;;;;5131149;27;20092;-56
2023/07/24 04:22:56;;;;;;;15.55;8.93;;;16.50;99.90;;;;;;5130787;27;20035;-57
2023/07/24 04:25:22;;;;;;;12.93;8.68;;;16.30;99.90;;;;;;5131266;27;20046;-56
2023/07/24 04:27:48;;;;;;;13.55;8.75;;;16.40;99.90;;;;;;5131142;27;20126;-56
2023/07/24 04:30:14;;;;;;;14.05;9.00;;;16.30;99.90;;;;;;5135208;27;20162;-56
2023/07/24 04:32:39;;;;;;;17.58;9.45;;;16.30;99.90;;;;;;5115522;27;20039;-57
2023/07/24 04:35:05;;;;;;;14.82;10.20;;;16.30;99.90;;;;;;5133478;27;20069;-56
2023/07/24 04:37:31;;;;;;;15.20;10.65;;;16.40;99.90;;;;;;5117753;27;20066;-56
2023/07/24 04:39:57;;;;;;;14.85;10.80;;;16.30;99.90;;;;;;5133769;27;20133;-57
2023/07/24 04:42:23;;;;;;;14.30;10.20;;;16.30;99.90;;;;;;5135088;27;20054;-56
2023/07/24 04:44:50;;;;;;;16.52;10.55;;;16.30;99.90;;;;;;5133912;27;20051;-55
2023/07/24 04:47:15;;;;;;;15.57;10.82;;;16.40;99.90;;;;;;5136035;27;20055;-56
2023/07/24 04:49:41;;;;;;;14.48;10.50;;;16.40;99.90;;;;;;5133449;27;20107;-56
2023/07/24 04:52:07;;;;;;;13.73;10.13;;;16.40;99.90;;;;;;5135403;27;20034;-56
2023/07/24 04:54:33;;;;;;;16.38;10.80;;;16.50;99.90;;;;;;5116119;27;20058;-56
2023/07/24 04:56:59;;;;;;;15.98;11.00;;;16.40;99.90;;;;;;5136402;27;20054;-56
2023/07/24 04:59:24;;;;;;;13.80;10.38;;;16.40;99.90;;;;;;5133492;27;20038;-56
2023/07/24 05:01:50;;;;;;;14.90;11.02;;;16.40;99.90;;;;;;5115900;27;20502;-56
2023/07/24 05:04:16;;;;;;;14.80;10.70;;;16.40;99.90;;;;;;5133250;27;20046;-56
2023/07/24 05:06:42;;;;;;;15.63;10.70;;;16.50;99.90;;;;;;5133760;27;20539;-56
2023/07/24 05:09:07;;;;;;;15.30;11.02;;;16.20;99.90;;;;;;5133832;27;20065;-56
2023/07/24 05:11:33;;;;;;;14.98;10.93;;;16.60;99.90;;;;;;5134370;27;20721;-56
2023/07/24 05:13:59;;;;;;;13.20;11.07;;;16.60;99.90;;;;;;5134179;27;20046;-56
2023/07/24 05:16:24;;;;;;;17.80;11.05;;;16.50;99.90;;;;;;5134035;27;20042;-56
2023/07/24 05:18:50;;;;;;;14.27;10.07;;;16.40;99.90;;;;;;5132655;27;20054;-56
2023/07/24 05:21:16;;;;;;;15.73;11.80;;;16.60;99.90;;;;;;5135683;27;20039;-56
2023/07/24 05:23:42;;;;;;;14.93;10.55;;;16.80;99.90;;;;;;5098046;27;20062;-56
2023/07/24 05:26:07;;;;;;;14.52;11.05;;;16.60;99.90;;;;;;5134635;27;20067;-56
2023/07/24 05:28:33;;;;;;;13.05;10.77;;;16.50;99.90;;;;;;5134191;27;20392;-56
2023/07/24 05:31:03;;;;;;;14.80;11.02;;;16.70;99.90;;;;;;5134738;27;20043;-56
2023/07/24 05:33:30;;;;;;;17.45;11.77;;;16.80;99.90;;;;;;5132265;27;20402;-56
2023/07/24 05:36:00;;;;;;;14.57;10.13;;;16.90;99.90;;;;;;5133332;27;20049;-55
2023/07/24 05:38:26;;;;;;;14.07;11.00;;;16.60;99.90;;;;;;5132354;27;20043;-56
2023/07/24 05:41:00;;;;;;;14.25;10.95;;;16.70;99.90;;;;;;5132757;27;20487;-56
2023/07/24 05:43:27;;;;;;;12.82;10.05;;;16.70;99.90;;;;;;5132966;27;20523;-56
2023/07/24 05:45:53;;;;;;;13.70;10.60;;;16.60;99.90;;;;;;5132783;27;20047;-56
2023/07/24 05:48:19;;;;;;;15.35;10.45;;;16.70;99.90;;;;;;5113801;27;20494;-56
2023/07/24 05:50:45;;;;;;;15.23;10.68;;;16.90;99.90;;;;;;5134598;27;20103;-56
2023/07/24 05:53:11;;;;;;;15.02;11.02;;;16.70;99.90;;;;;;5131838;27;20411;-56
2023/07/24 05:55:37;;;;;;;14.38;10.88;;;16.70;99.90;;;;;;5114139;27;20043;-56
2023/07/24 05:58:02;;;;;;;14.63;11.60;;;16.80;99.90;;;;;;5134868;27;21155;-56
2023/07/24 06:00:28;;;;;;;18.33;10.88;;;16.70;99.90;;;;;;5112714;27;20477;-56
2023/07/24 06:02:54;;;;;;;14.90;10.70;;;16.60;99.90;;;;;;5133216;27;20624;-56
2023/07/24 06:05:20;;;;;;;17.67;10.80;;;16.70;99.90;;;;;;5132220;27;20119;-56
2023/07/24 06:07:46;;;;;;;16.20;10.68;;;16.70;99.90;;;;;;5134125;27;20514;-56
2023/07/24 06:10:12;;;;;;;14.13;11.05;;;16.70;99.90;;;;;;5133364;27;20026;-56
2023/07/24 06:12:38;;;;;;;15.40;10.18;;;16.80;99.90;;;;;;5131626;27;20520;-56
2023/07/24 06:15:04;;;;;;;13.57;9.98;;;17.00;99.90;;;;;;5132788;27;20513;-56
2023/07/24 06:17:30;;;;;;;15.60;11.05;;;16.90;99.90;;;;;;5113894;27;20034;-57
2023/07/24 06:19:56;;;;;;;17.17;10.43;;;17.00;99.90;;;;;;5134087;27;20344;-56
2023/07/24 06:22:23;;;;;;;17.02;10.65;;;15.20;99.90;;;;;;5132374;27;20121;-56
2023/07/24 06:24:48;;;;;;;15.13;10.80;;;17.10;99.90;;;;;;5110385;27;20038;-56
2023/07/24 06:27:14;;;;;;;16.23;10.20;;;17.10;99.90;;;;;;5134056;27;20042;-56
2023/07/24 06:29:40;;;;;;;14.05;10.15;;;17.20;99.90;;;;;;5132202;27;20130;-56
2023/07/24 06:32:07;;;;;;;15.35;10.05;;;17.30;99.90;;;;;;5113437;27;20444;-56
2023/07/24 06:34:33;;;;;;;13.23;9.82;;;17.40;99.90;;;;;;5132089;27;20070;-56
2023/07/24 06:36:58;;;;;;;15.45;9.52;;;17.10;99.90;;;;;;5131712;27;20213;-55
2023/07/24 06:39:24;;;;;;;12.60;9.43;;;17.20;99.90;;;;;;5132702;27;20230;-56
2023/07/24 06:41:54;;;;;;;14.90;9.82;;;17.40;99.90;;;;;;5130178;27;20039;-57
2023/07/24 06:44:19;;;;;;;16.67;9.73;;;17.50;99.90;;;;;;5130846;27;20062;-56
2023/07/24 06:46:45;;;;;;;15.40;9.80;;;17.40;99.90;;;;;;5131347;27;20153;-56
2023/07/24 06:49:11;;;;;;;14.18;9.27;;;17.60;99.90;;;;;;5112342;27;20047;-56
2023/07/24 06:51:38;;;;;;;16.73;9.00;;;17.50;99.90;;;;;;5130827;27;20099;-56
2023/07/24 06:54:05;;;;;;;17.42;9.43;;;17.50;99.90;;;;;;5111627;27;20043;-56
2023/07/24 06:56:31;;;;;;;13.60;9.32;;;17.60;99.90;;;;;;5132516;27;20047;-56
2023/07/24 06:58:56;;;;;;;15.70;10.30;;;17.50;99.90;;;;;;5131359;27;20437;-56
2023/07/24 07:01:22;;;;;;;19.38;9.23;;;17.60;99.90;;;;;;5131699;27;20033;-56
2023/07/24 07:03:48;;;;;;;14.95;9.38;;;17.80;99.90;;;;;;5131914;27;20070;-56
2023/07/24 07:06:14;;;;;;;18.45;9.82;;;17.70;99.90;;;;;;5130401;27;20043;-56
2023/07/24 07:08:39;;;;;;;14.60;9.07;;;17.50;99.90;;;;;;5131675;27;20388;-56
2023/07/24 07:11:05;;;;;;;15.23;8.75;;;17.80;99.90;;;;;;5128967;27;20095;-56
2023/07/24 07:13:31;;;;;;;13.02;8.30;;;17.70;99.90;;;;;;5111736;27;20043;-56
2023/07/24 07:15:56;;;;;;;17.25;9.15;;;17.70;99.90;;;;;;5132640;27;20436;-56
2023/07/24 07:18:22;;;;;;;17.42;9.32;;;17.60;99.90;;;;;;5131304;27;20043;-56
2023/07/24 07:20:50;;;;;;;15.18;9.30;;;17.80;99.90;;;;;;5130385;27;20529;-57
2023/07/24 07:23:16;;;;;;;22.58;9.70;;;17.70;99.90;;;;;;5131015;27;20070;-56
2023/07/24 07:25:45;;;;;;;17.30;10.30;;;17.70;99.90;;;;;;5132422;27;20055;-56
2023/07/24 07:28:14;;;;;;;15.13;8.60;;;17.90;99.90;;;;;;5133527;27;20027;-56
2023/07/24 07:30:41;;;;;;;20.95;9.25;;;18.00;99.90;;;;;;5131439;27;20061;-56
2023/07/24 07:33:07;;;;;;;14.57;8.50;;;18.00;99.90;;;;;;5131525;27;20055;-56
2023/07/24 07:35:33;;;;;;;19.02;9.60;;;17.80;99.90;;;;;;5113646;27;20056;-56
2023/07/24 07:37:59;;;;;;;14.57;8.85;;;17.90;99.90;;;;;;5131446;27;20035;-56
2023/07/24 07:40:26;;;;;;;19.80;9.60;;;19.20;99.90;;;;;;5130774;27;20130;-56
2023/07/24 07:42:56;;;;;;;19.88;10.20;;;18.00;99.90;;;;;;5130966;27;20106;-57
2023/07/24 07:45:23;;;;;;;14.10;8.35;;;18.10;99.90;;;;;;5131134;27;20054;-56
2023/07/24 07:47:49;;;;;;;16.17;9.32;;;18.10;99.90;;;;;;5131253;27;20038;-56
2023/07/24 07:50:15;;;;;;;16.45;8.98;;;18.10;99.90;;;;;;5113902;27;20038;-56
2023/07/24 07:52:41;;;;;;;14.05;8.48;;;18.30;99.90;;;;;;5130351;27;20081;-56
2023/07/24 07:55:08;;;;;;;15.43;8.07;;;18.30;99.90;;;;;;5128294;27;20047;-56
2023/07/24 07:57:37;;;;;;;20.83;9.32;;;18.50;99.90;;;;;;5131123;27;20956;-56
2023/07/24 08:00:04;;;;;;;19.48;8.00;;;18.40;99.90;;;;;;5129306;27;20039;-55
2023/07/24 08:02:31;;;;;;;17.52;9.18;;;18.50;99.90;;;;;;5131225;27;20046;-56
2023/07/24 08:04:58;;;;;;;14.88;7.85;;;18.60;99.90;;;;;;5129067;27;20030;-56
2023/07/24 08:07:24;;;;;;;16.83;8.32;;;18.60;99.90;;;;;;5129395;27;20034;-56
2023/07/24 08:09:50;;;;;;;18.02;7.88;;;18.70;99.90;;;;;;5111549;27;20046;-57
2023/07/24 08:12:16;;;;;;;14.52;8.48;;;18.60;99.90;;;;;;5129762;27;20189;-57
2023/07/24 08:14:41;;;;;;;14.60;7.32;;;18.60;99.90;;;;;;5129374;27;20035;-56
2023/07/24 08:17:07;;;;;;;15.80;7.72;;;18.80;99.90;;;;;;5110715;27;20521;-56
2023/07/24 08:19:33;;;;;;;19.27;8.15;;;18.70;99.90;;;;;;5128837;27;20043;-56
2023/07/24 08:21:59;;;;;;;17.08;8.05;;;18.70;99.90;;;;;;5130800;27;20058;-56
2023/07/24 08:24:25;;;;;;;15.25;7.80;;;18.40;99.90;;;;;;5129675;27;20098;-56
2023/07/24 08:26:51;;;;;;;16.23;7.47;;;18.70;99.90;;;;;;5130568;27;20031;-56
2023/07/24 08:29:16;;;;;;;20.30;8.77;;;18.60;99.90;;;;;;5130339;27;20093;-56
2023/07/24 08:31:42;;;;;;;15.80;7.45;;;18.60;99.90;;;;;;5130075;27;20468;-55
2023/07/24 08:34:08;;;;;;;15.65;7.00;;;18.80;99.90;;;;;;5130690;27;20146;-56
2023/07/24 08:36:34;;;;;;;16.02;7.85;;;18.60;99.90;;;;;;5128687;27;20046;-56
2023/07/24 08:38:59;;;;;;;19.95;7.55;;;18.70;99.90;;;;;;5130296;27;20237;-56
2023/07/24 08:41:25;;;;;;;17.55;8.45;;;18.90;99.90;;;;;;5128911;27;20130;-57
2023/07/24 08:43:53;;;;;;;17.17;7.70;;;18.60;99.90;;;;;;5129502;27;20308;-56
2023/07/24 08:46:20;;;;;;;20.10;7.85;;;18.70;99.90;;;;;;5128839;27;24052;-56
2023/07/24 08:48:46;;;;;;;21.52;8.50;;;18.70;99.90;;;;;;5130807;27;20356;-55
2023/07/24 08:51:15;;;;;;;14.70;6.90;;;18.80;99.90;;;;;;5092757;27;20045;-55
2023/07/24 08:53:43;;;;;;;16.42;7.18;;;19.00;99.90;;;;;;5128927;27;20359;-56
2023/07/24 08:56:12;;;;;;;16.27;7.88;;;19.10;99.90;;;;;;5129512;27;20117;-55
2023/07/24 08:58:39;;;;;;;14.00;7.03;;;19.00;99.90;;;;;;5130073;27;20074;-56
2023/07/24 09:01:05;;;;;;;18.30;6.88;;;19.00;99.90;;;;;;5129020;27;20050;-56
2023/07/24 09:03:32;;;;;;;15.48;6.25;;;19.30;99.90;;;;;;5129077;27;20043;-56
2023/07/24 09:05:58;;;;;;;14.73;7.15;;;19.20;99.90;;;;;;5129818;27;20066;-55
2023/07/24 09:08:35;;;;;;;14.75;6.57;;;19.20;99.90;;;;;;5111566;27;20130;-57
2023/07/24 09:11:02;;;;;;;12.55;6.28;;;19.10;99.90;;;;;;5127209;27;20049;-56
2023/07/24 09:13:29;;;;;;;14.02;6.50;;;19.20;99.90;;;;;;5129391;27;20067;-56
2023/07/24 09:15:55;;;;;;;16.15;6.32;;;19.30;99.90;;;;;;5131532;27;20039;-55
2023/07/24 09:18:21;;;;;;;13.18;6.00;;;19.50;99.90;;;;;;5116735;27;20282;-56
2023/07/24 09:20:47;;;;;;;12.23;6.07;;;19.50;99.90;;;;;;5133664;27;20072;-56
2023/07/24 09:23:14;;;;;;;12.80;6.40;;;19.90;99.90;;;;;;5133053;27;20034;-55
2023/07/24 09:25:42;;;;;;;13.43;6.25;;;20.20;99.90;;;;;;5134105;27;20074;-55
2023/07/24 09:28:18;;;;;;;14.90;7.15;;;20.30;99.90;;;;;;5135739;27;20141;-56
2023/07/24 09:30:58;;;;;;;10.20;5.80;;;20.40;99.90;;;;;;5132757;27;20497;-55
2023/07/24 09:33:38;;;;;;;15.45;7.03;;;20.50;99.90;;;;;;5132454;27;20047;-55
2023/07/24 09:36:07;;;;;;;13.15;5.88;;;20.30;99.90;;;;;;5116133;27;20042;-55
2023/07/24 09:38:33;;;;;;;15.95;6.15;;;20.60;99.90;;;;;;5131952;27;20483;-55
2023/07/24 09:41:01;;;;;;;12.55;5.90;;;21.00;99.90;;;;;;5107064;27;20045;-55
2023/07/24 09:43:28;;;;;;;11.57;6.20;;;21.10;99.90;;;;;;5132513;27;20514;-56
2023/07/24 09:45:55;;;;;;;11.63;5.32;;;21.20;99.90;;;;;;5133695;27;20623;-56
2023/07/24 09:48:25;;;;;;;9.40;4.90;;;21.60;99.90;;;;;;5133911;27;20035;-54
2023/07/24 09:50:59;;;;;;;11.27;5.57;;;21.40;99.90;;;;;;5133022;27;20122;-55
2023/07/24 09:53:30;;;;;;;10.57;5.93;;;21.70;99.90;;;;;;5133342;27;20322;-55
2023/07/24 09:56:01;;;;;;;;;;;21.70;99.90;;;;;;5134297;27;20121;-56
2023/07/24 09:58:28;;;;;;;12.30;6.78;;;21.90;99.90;;;;;;5133347;27;19951;-55
2023/07/24 10:00:54;;;;;;;11.55;6.65;;;22.20;99.90;;;;;;5133813;27;20411;-55
2023/07/24 10:03:22;;;;;;;11.63;6.55;;;22.10;99.90;;;;;;5132098;27;20458;-55
2023/07/24 10:05:48;;;;;;;11.50;6.63;;;20.60;99.90;;;;;;5115498;27;20262;-55
2023/07/24 10:08:19;;;;;;;14.43;6.25;;;22.00;99.90;;;;;;5115763;27;20070;-56
2023/07/24 10:10:45;;;;;;;11.32;6.32;;;21.80;99.90;;;;;;5131943;27;20071;-56
2023/07/24 10:13:14;;;;;;;11.70;6.53;;;22.00;99.90;;;;;;5133586;27;20406;-56
2023/07/24 10:15:42;;;;;;;10.95;5.18;;;22.20;99.90;;;;;;5133953;27;20112;-56
2023/07/24 10:18:09;;;;;;;10.35;5.72;;;21.80;99.90;;;;;;5133952;27;20441;-56
2023/07/24 10:20:36;;;;;;;10.20;5.35;;;22.20;99.90;;;;;;5133085;27;20140;-56
2023/07/24 10:23:03;;;;;;;12.40;5.68;;;22.50;99.90;;;;;;5132580;27;20038;-55
2023/07/24 10:25:31;;;;;;;15.07;7.45;;;22.70;99.90;;;;;;5132367;27;21119;-55
2023/07/24 10:28:02;;;;;;;16.80;7.43;;;22.70;99.90;;;;;;5135934;27;20046;-56
2023/07/24 10:30:29;;;;;;;10.90;6.30;;;22.50;99.90;;;;;;5134107;27;20038;-56
2023/07/24 10:33:10;;;;;;;10.32;5.63;;;22.50;99.90;;;;;;5132305;27;20583;-56
2023/07/24 10:35:41;;;;;;;15.40;7.45;;;22.90;99.90;;;;;;5131100;27;20413;-55
2023/07/24 10:38:07;;;;;;;8.48;4.60;;;22.20;99.90;;;;;;5130783;27;20119;-56
2023/07/24 10:40:34;;;;;;;8.45;4.43;;;22.00;99.90;;;;;;5132181;27;20166;-56
2023/07/24 10:43:11;;;;;;;10.02;5.00;;;21.90;99.90;;;;;;5132042;27;20456;-55
2023/07/24 10:45:53;;;;;;;12.18;5.00;;;21.80;99.90;;;;;;5132150;27;20111;-55
2023/07/24 10:48:20;;;;;;;11.02;5.20;;;21.60;99.90;;;;;;5130532;27;20049;-55
2023/07/24 10:50:50;;;;;;;8.80;5.18;;;21.40;99.90;;;;;;5111096;27;20039;-55
2023/07/24 10:53:19;;;;;;;14.55;5.55;;;21.10;99.90;;;;;;5129728;27;20055;-55
2023/07/24 10:55:47;;;;;;;8.77;4.68;;;20.90;99.90;;;;;;5131493;27;20058;-55
2023/07/24 10:58:14;;;;;;;9.32;5.35;;;20.50;99.90;;;;;;5132705;27;20095;-55
2023/07/24 11:00:40;;;;;;;13.00;5.43;;;20.20;99.90;;;;;;5131417;27;20046;-54
2023/07/24 11:03:13;;;;;;;7.65;5.15;;;19.80;99.90;;;;;;5130535;27;20419;-56
2023/07/24 11:05:46;;;;;;;9.48;6.70;;;20.10;99.90;;;;;;5130148;27;20039;-55
2023/07/24 11:08:14;;;;;;;12.30;5.68;;;20.10;99.90;;;;;;5108639;27;20131;-57
2023/07/24 11:10:52;;;;;;;11.35;5.63;;;19.90;99.90;;;;;;5130691;27;20053;-55
2023/07/24 11:13:22;;;;;;;12.38;6.15;;;20.20;99.90;;;;;;5132715;27;20050;-54
2023/07/24 11:15:49;;;;;;;13.50;7.30;;;20.00;99.90;;;;;;5131955;27;20058;-52
2023/07/24 11:18:16;;;;;;;11.15;7.13;;;20.10;99.90;;;;;;5131406;27;20046;-55
2023/07/24 11:20:48;;;;;;;12.20;6.70;;;20.30;99.90;;;;;;5131899;27;20039;-54
2023/07/24 11:23:14;;;;;;;12.43;6.82;;;20.60;99.90;;;;;;5131483;27;20105;-55
2023/07/24 11:25:40;;;;;;;11.80;6.50;;;20.90;99.90;;;;;;5130264;27;20050;-55
2023/07/24 11:28:08;;;;;;;10.25;5.82;;;21.10;99.90;;;;;;5133878;27;20050;-54
2023/07/24 11:30:34;;;;;;;8.68;6.00;;;21.20;99.90;;;;;;5132842;27;20043;-50
2023/07/24 11:33:02;;;;;;;9.82;6.22;;;21.10;99.90;;;;;;5130755;27;20047;-55
2023/07/24 11:35:28;;;;;;;9.25;6.05;;;21.10;99.90;;;;;;5132147;27;20099;-54
2023/07/24 11:37:54;;;;;;;11.77;6.05;;;21.30;99.90;;;;;;5131944;27;20444;-53
2023/07/24 11:40:20;;;;;;;11.55;6.05;;;21.40;99.90;;;;;;5130989;27;20027;-52
2023/07/24 11:42:48;;;;;;;13.27;6.75;;;21.40;99.90;;;;;;5131396;27;20525;-54
2023/07/24 11:45:14;;;;;;;14.90;7.13;;;21.40;99.90;;;;;;5132762;27;20379;-54
2023/07/24 11:47:45;;;;;;;11.15;6.70;;;21.40;99.90;;;;;;5130699;27;20431;-53
2023/07/24 11:50:12;;;;;;;9.30;5.50;;;21.70;99.90;;;;;;5113245;27;20042;-55
2023/07/24 11:52:43;;;;;;;11.18;5.78;;;21.50;99.90;;;;;;5129878;27;20043;-56
2023/07/24 11:55:32;;;;;;;12.48;6.53;;;21.20;99.90;;;;;;5130631;27;20138;-53
2023/07/24 11:57:59;;;;;;;9.57;5.90;;;21.10;99.90;;;;;;5120483;27;20055;-54
2023/07/24 12:00:26;;;;;;;7.72;5.65;;;21.10;99.90;;;;;;5131748;27;20035;-54
2023/07/24 12:02:52;;;;;;;12.27;5.93;;;20.80;99.90;;;;;;5131122;27;20667;-51
2023/07/24 12:05:18;;;;;;;8.55;5.45;;;20.50;99.90;;;;;;5131073;27;20137;-54
2023/07/24 12:07:47;;;;;;;10.00;5.78;;;20.40;99.90;;;;;;5129338;27;20042;-55
2023/07/24 12:10:14;;;;;;;10.23;6.80;;;20.20;99.90;;;;;;5130872;27;20050;-53
2023/07/24 12:12:48;;;;;;;9.23;6.72;;;19.80;99.90;;;;;;5132086;27;20136;-53
2023/07/24 12:15:14;;;;;;;8.30;6.32;;;19.90;99.90;;;;;;5130589;27;20625;-54
2023/07/24 12:17:41;;;;;;;9.38;6.93;;;19.70;99.90;;;;;;5129709;27;20324;-54
2023/07/24 12:20:09;;;;;;;12.43;7.78;;;19.50;99.90;;;;;;5129747;27;20103;-51
2023/07/24 12:22:38;;;;;;;11.05;8.10;;;19.50;99.90;;;;;;5130503;27;20082;-50
2023/07/24 12:25:05;;;;;;;11.30;7.53;;;19.50;99.90;;;;;;5111684;27;20403;-52
2023/07/24 12:27:32;;;;;;;9.73;6.53;;;19.40;99.90;;;;;;5130630;27;20042;-50
2023/07/24 12:29:58;;;;;;;9.75;5.05;;;19.30;99.90;;;;;;5132590;27;20505;-53
2023/07/24 12:32:24;;;;;;;6.50;4.65;;;18.90;99.90;;;;;;5131891;27;20035;-53
2023/07/24 12:34:51;;;;;;;7.63;4.70;;;19.00;99.90;;;;;;5107882;27;20097;-52